createdAt,value
2022-10-05T00:03:12.869Z,87.5
2022-10-05T00:08:13.104Z,87.8
2022-10-05T00:14:02.596Z,86.6
2022-10-05T00:19:02.823Z,87.2
2022-10-05T00:24:02.841Z,86
2022-10-05T00:29:13.150Z,85.6
2022-10-05T00:35:02.914Z,85.6
2022-10-05T00:40:13.087Z,86
2022-10-05T00:45:13.154Z,85.7
2022-10-05T00:50:13.234Z,87.7
2022-10-05T00:56:02.631Z,86.4
2022-10-05T01:01:02.716Z,87.6
2022-10-05T01:06:12.876Z,88.2
2022-10-05T01:11:12.897Z,87.6
2022-10-05T01:16:13.008Z,87.8
2022-10-05T01:22:02.607Z,86.5
2022-10-05T01:27:02.609Z,86.7
2022-10-05T01:32:02.652Z,86.6
2022-10-05T01:37:12.904Z,85.5
2022-10-05T01:42:12.905Z,85.1
2022-10-05T01:48:02.585Z,86
2022-10-05T01:53:02.619Z,85.6
2022-10-05T01:58:02.826Z,87.2
2022-10-05T02:03:12.936Z,86.4
2022-10-05T02:08:13.078Z,85.5
2022-10-05T02:14:02.804Z,84.9
2022-10-05T02:19:02.882Z,86.5
2022-10-05T02:24:13.088Z,87.2
2022-10-05T02:29:13.132Z,87.2
2022-10-05T02:35:02.637Z,87.4
2022-10-05T02:40:13.072Z,91
2022-10-05T02:45:13.130Z,90
2022-10-05T02:51:02.783Z,90.5
2022-10-05T02:56:02.816Z,91.3
2022-10-05T03:01:13.147Z,91.1
2022-10-05T03:06:13.126Z,91.6
2022-10-05T03:12:02.856Z,90.7
2022-10-05T03:17:13.090Z,89.9
2022-10-05T03:22:13.120Z,90.4
2022-10-05T03:28:02.851Z,90.6
2022-10-05T03:33:02.832Z,90.3
2022-10-05T03:38:12.869Z,90.4
2022-10-05T03:43:12.894Z,90.2
2022-10-05T03:48:13.117Z,89.9
2022-10-05T03:53:13.166Z,91.6
2022-10-05T03:58:22.342Z,91.2
2022-10-05T04:04:02.801Z,90.1
2022-10-05T04:09:02.849Z,90.6
2022-10-05T04:14:12.936Z,88.7
2022-10-05T04:19:13.034Z,88.5
2022-10-05T04:24:13.085Z,89.4
2022-10-05T04:30:02.792Z,89.8
2022-10-05T04:35:13.083Z,89.6
2022-10-05T04:40:13.092Z,90.2
2022-10-05T04:46:02.818Z,90.8
2022-10-05T04:51:12.870Z,90.2
2022-10-05T04:56:13.082Z,90.1
2022-10-05T05:02:02.836Z,90
2022-10-05T05:07:02.831Z,89.4
2022-10-05T05:12:02.821Z,89.8
2022-10-05T05:17:13.426Z,87.2
2022-10-05T05:22:13.130Z,87.2
2022-10-05T05:28:02.809Z,87
2022-10-05T05:33:02.847Z,87.1
2022-10-05T05:38:22.196Z,86
2022-10-05T05:44:02.776Z,86.4
2022-10-05T05:49:02.956Z,86.4
2022-10-05T05:54:02.808Z,87.2
2022-10-05T05:59:13.087Z,85
2022-10-05T06:05:02.837Z,84.1
2022-10-05T06:10:13.063Z,84
2022-10-05T06:15:13.063Z,83.9
2022-10-05T06:20:13.181Z,83.5
2022-10-05T06:26:04.185Z,83.1
2022-10-05T06:31:13.116Z,82.3
2022-10-05T06:36:13.115Z,81.9
2022-10-05T06:42:02.818Z,84.1
2022-10-05T06:47:02.849Z,83.8
2022-10-05T06:52:13.119Z,80.8
2022-10-05T06:58:02.663Z,80.6
2022-10-05T07:03:12.860Z,81.1
2022-10-05T07:09:02.579Z,79.6
2022-10-05T07:14:02.712Z,78.7
2022-10-05T07:19:12.905Z,77
2022-10-05T07:25:02.619Z,76.7
2022-10-05T07:30:02.663Z,75.4
2022-10-05T07:35:02.699Z,74.6
2022-10-05T07:40:12.858Z,74.7
2022-10-05T07:45:12.879Z,73.9
2022-10-05T07:50:12.928Z,74.2
2022-10-05T07:56:02.705Z,75.3
2022-10-05T08:01:12.888Z,74
2022-10-05T08:06:12.906Z,75.6
2022-10-05T08:12:02.746Z,76.3
2022-10-05T08:17:02.878Z,74.7
2022-10-05T08:22:13.118Z,74.6
2022-10-05T08:28:02.639Z,75.3
2022-10-05T08:33:02.826Z,72.9
2022-10-05T08:38:12.838Z,72
2022-10-05T08:43:12.955Z,73.6
2022-10-05T08:48:13.093Z,74.2
2022-10-05T08:53:13.168Z,73.7
2022-10-05T08:59:02.816Z,73.2
2022-10-05T09:04:02.794Z,73.1
2022-10-05T09:09:13.099Z,73
2022-10-05T09:15:24.191Z,71.1
2022-10-05T09:20:13.084Z,74.4
2022-10-05T09:26:02.877Z,73.7
2022-10-05T09:31:13.222Z,73.5
2022-10-05T09:36:13.132Z,72.6
2022-10-05T09:42:02.768Z,71.4
2022-10-05T09:47:12.979Z,69.6
2022-10-05T09:52:17.908Z,68.4
2022-10-05T09:58:02.826Z,68.7
2022-10-05T10:03:13.245Z,68.8
2022-10-05T10:09:02.824Z,67.4
2022-10-05T10:14:13.107Z,67.7
2022-10-05T10:19:13.202Z,66.5
2022-10-05T10:25:02.832Z,65.5
2022-10-05T10:30:13.104Z,65.6
2022-10-05T10:35:13.183Z,63.9
2022-10-05T10:41:02.646Z,65.8
2022-10-05T10:46:02.906Z,63.1
2022-10-05T10:51:13.290Z,62.6
2022-10-05T10:57:02.646Z,61.5
2022-10-05T11:02:02.866Z,60.8
2022-10-05T11:07:02.981Z,61.4
2022-10-05T11:12:02.836Z,62.7
2022-10-05T11:17:13.139Z,61.2
2022-10-05T11:23:02.896Z,62.9
2022-10-05T11:28:13.017Z,61.7
2022-10-05T11:33:13.150Z,62.4
2022-10-05T11:39:02.729Z,59
2022-10-05T11:44:06.200Z,59.3
2022-10-05T11:49:12.975Z,59.1
2022-10-05T11:54:13.146Z,58.5
2022-10-05T12:00:02.792Z,59.6
2022-10-05T12:05:02.912Z,57.3
2022-10-05T12:10:02.966Z,56.3
2022-10-05T12:15:13.128Z,57.1
2022-10-05T12:21:02.787Z,57.2
2022-10-05T12:26:02.872Z,57.1
2022-10-05T12:31:13.150Z,55.9
2022-10-05T12:36:13.111Z,55.6
2022-10-05T12:42:02.971Z,55.5
2022-10-05T12:47:02.857Z,55.1
2022-10-05T12:52:02.902Z,55.9
2022-10-05T12:57:12.928Z,58.6
2022-10-05T13:02:13.053Z,56.9
2022-10-05T13:08:02.639Z,57.4
2022-10-05T13:13:02.719Z,54.8
2022-10-05T13:18:13.268Z,54
2022-10-05T13:24:02.619Z,54.4
2022-10-05T13:29:02.767Z,57
2022-10-05T13:34:12.932Z,56.8
2022-10-05T13:39:12.974Z,58.2
2022-10-05T13:44:12.990Z,57.2
2022-10-05T13:50:02.676Z,57.6
2022-10-05T13:55:12.968Z,58
2022-10-05T14:01:02.714Z,59
2022-10-05T14:06:02.699Z,59.6
2022-10-05T14:19:02.845Z,60.2
2022-10-05T14:24:20.207Z,62.6
2022-10-05T14:30:02.856Z,63.3
2022-10-05T14:35:02.867Z,63.4
2022-10-05T14:40:13.134Z,62.7
2022-10-05T14:46:03.040Z,61.3
2022-10-05T14:51:13.125Z,62
2022-10-05T14:56:13.505Z,62.8
2022-10-05T15:02:02.882Z,63.4
2022-10-05T15:07:13.014Z,63.8
2022-10-05T15:12:13.182Z,65.1
2022-10-05T15:18:02.863Z,63.5
2022-10-05T15:23:02.885Z,63.9
2022-10-05T15:28:13.257Z,64.7
2022-10-05T15:33:22.193Z,66.6
2022-10-05T15:39:02.905Z,66.4
2022-10-05T15:44:13.151Z,67.3
2022-10-05T15:49:13.163Z,66.6
2022-10-05T15:55:02.796Z,68.3
2022-10-05T16:00:13.173Z,68.8
2022-10-05T16:06:02.686Z,69.3
2022-10-05T16:11:02.740Z,71.4
2022-10-05T16:16:02.926Z,72
2022-10-05T16:21:04.890Z,73.2
2022-10-05T16:26:13.201Z,74.8
2022-10-05T16:31:13.250Z,73.1
2022-10-05T16:37:02.884Z,73.2
2022-10-05T16:42:13.001Z,72.6
2022-10-05T16:47:13.168Z,73.6
2022-10-05T16:53:02.851Z,74.4
2022-10-05T16:58:02.887Z,75.9
2022-10-05T17:03:13.181Z,75.1
2022-10-05T17:08:13.181Z,74.4
2022-10-05T17:14:02.984Z,76.8
2022-10-05T17:19:12.938Z,77
2022-10-05T17:24:13.224Z,78.4
2022-10-05T17:30:02.726Z,77
2022-10-05T17:35:02.898Z,76.5
2022-10-05T17:40:12.971Z,75.8
2022-10-05T17:45:13.281Z,77.3
2022-10-05T17:50:13.194Z,76.3
2022-10-05T17:56:02.914Z,75.9
2022-10-05T18:01:03.089Z,75.7
2022-10-05T18:06:12.997Z,75.6
2022-10-05T18:11:13.199Z,75.7
2022-10-05T18:17:03.018Z,75.6
2022-10-05T18:22:13.169Z,76.5
2022-10-05T18:28:02.960Z,75
2022-10-05T18:33:02.929Z,75.5
2022-10-05T18:38:13.218Z,76.4
2022-10-05T18:43:17.839Z,74
2022-10-05T18:49:02.760Z,72.7
2022-10-05T18:54:03.034Z,72.8
2022-10-05T18:59:13.203Z,73
2022-10-05T19:05:02.991Z,74.1
2022-10-05T19:10:13.203Z,73.9
2022-10-05T19:15:13.245Z,74.2
2022-10-05T19:21:02.973Z,75.7
2022-10-05T19:26:13.024Z,75.3
2022-10-05T19:31:13.371Z,76.2
2022-10-05T19:37:02.841Z,75.5
2022-10-05T19:42:12.994Z,76
2022-10-05T19:48:02.694Z,75.1
2022-10-05T19:53:02.740Z,73
2022-10-05T19:58:02.757Z,72.1
2022-10-05T20:03:13.069Z,72.9
2022-10-05T20:08:13.036Z,73
2022-10-05T20:13:13.036Z,70.2
2022-10-05T20:19:02.669Z,73.2
2022-10-05T20:24:12.997Z,70.6
2022-10-05T20:29:13.100Z,72.4
2022-10-05T20:35:02.754Z,69.9
2022-10-05T20:40:02.850Z,68.9
2022-10-05T20:45:02.887Z,69.9
2022-10-05T20:50:02.984Z,70
2022-10-05T20:55:13.237Z,69.5
2022-10-05T21:01:02.999Z,71.5
2022-10-05T21:06:13.250Z,69
2022-10-05T21:12:02.985Z,70.3
2022-10-05T21:17:13.209Z,70.9
2022-10-05T21:23:02.939Z,70.8
2022-10-05T21:28:13.312Z,70.2
2022-10-05T21:34:02.920Z,70.3
2022-10-05T21:39:02.939Z,70.5
2022-10-05T21:45:02.955Z,68.9
2022-10-05T21:50:02.946Z,69.2
2022-10-05T21:55:13.275Z,69.8
2022-10-05T22:01:03.097Z,70.2
2022-10-05T22:06:13.031Z,69.5
2022-10-05T22:11:13.032Z,70.5
2022-10-05T22:17:02.835Z,70.2
2022-10-05T22:22:02.928Z,70
2022-10-05T22:27:13.233Z,70.3
2022-10-05T22:33:02.961Z,70.9
2022-10-05T22:38:02.938Z,69.5
2022-10-05T22:43:02.948Z,70.2
2022-10-05T22:48:13.045Z,69.8
2022-10-05T22:53:13.256Z,70.7
2022-10-05T22:59:02.740Z,72.3
2022-10-05T23:04:02.822Z,71.1
2022-10-05T23:09:13.278Z,72.9
2022-10-05T23:15:02.909Z,77.5
2022-10-05T23:20:03.004Z,79.3
2022-10-05T23:25:13.219Z,79.7
2022-10-05T23:30:13.271Z,79
2022-10-05T23:35:13.323Z,77.8
2022-10-05T23:41:02.956Z,78.2
2022-10-05T23:46:03.108Z,77.7
2022-10-05T23:51:13.303Z,78.1
2022-10-05T23:57:02.961Z,79.7
